Time;durP1;ratioP1;P1;durP2;ratioP2;P2;SDS_P1;SDS_P2;PMS_P1;PMS_P2;Temp;Humidity;BMP_temperature;BMP_pressure;BME280_temperature;BME280_humidity;BME280_pressure;Samples;Min_cycle;Max_cycle;Signal;HPM_P1;HPM_P2
2022/08/25 00:00:34;;;;;;;5.55;2.40;;;;;;;24.39;39.91;100261.38;10335487;28;20539;-59
2022/08/25 00:05:35;;;;;;;3.72;2.20;;;;;;;24.39;40.17;100266.81;10334143;28;20157;-59
2022/08/25 00:10:39;;;;;;;3.83;2.13;;;;;;;24.35;40.37;100264.50;10339417;28;20489;-60
2022/08/25 00:15:40;;;;;;;4.03;2.40;;;;;;;24.30;40.82;100264.31;10338174;28;20127;-60
2022/08/25 00:20:42;;;;;;;4.25;2.78;;;;;;;24.29;41.07;100262.66;10332829;28;20621;-59
2022/08/25 00:25:50;;;;;;;5.80;2.85;;;;;;;24.24;41.32;100272.50;10338675;28;20843;-59
2022/08/25 00:30:51;;;;;;;3.00;2.47;;;;;;;24.20;41.16;100263.09;10336625;28;20059;-59
2022/08/25 00:35:55;;;;;;;2.83;2.15;;;;;;;24.19;41.70;100273.13;10341360;28;20126;-59
2022/08/25 00:41:05;;;;;;;2.78;2.38;;;;;;;24.22;41.59;100275.44;10333560;28;20049;-58
2022/08/25 00:46:08;;;;;;;3.30;2.90;;;;;;;24.18;42.03;100271.47;10332658;28;20132;-60
2022/08/25 00:51:15;;;;;;;6.38;2.63;;;;;;;24.15;42.35;100269.16;10340456;28;20101;-59
2022/08/25 00:56:17;;;;;;;2.95;2.60;;;;;;;24.18;42.55;100277.75;10307390;23;20129;-57
2022/08/25 01:01:21;;;;;;;3.25;2.50;;;;;;;24.15;42.83;100266.44;10287581;28;20052;-58
2022/08/25 01:06:23;;;;;;;3.35;2.25;;;;;;;24.20;43.32;100274.81;10286509;28;20042;-58
2022/08/25 01:11:26;;;;;;;3.63;3.00;;;;;;;24.14;43.68;100264.75;10284163;28;20657;-58
2022/08/25 01:16:28;;;;;;;;;;;;;;;24.10;44.02;100267.09;10275689;28;20244;-57
2022/08/25 01:21:36;;;;;;;3.47;2.60;;;;;;;24.13;44.34;100269.38;10282033;28;20027;-58
2022/08/25 01:26:37;;;;;;;3.85;3.00;;;;;;;24.08;44.61;100266.47;10282456;28;20077;-58
2022/08/25 01:31:40;;;;;;;8.75;3.67;;;;;;;24.06;44.42;100273.16;10291458;28;20227;-58
2022/08/25 01:36:43;;;;;;;8.00;3.00;;;;;;;23.99;44.99;100265.84;10283868;28;20164;-58
2022/08/25 01:41:47;;;;;;;4.30;2.92;;;;;;;23.93;44.82;100271.28;10282482;28;20061;-57
2022/08/25 01:46:52;;;;;;;3.33;2.80;;;;;;;23.85;45.24;100275.06;10284510;28;20267;-58
2022/08/25 01:52:20;;;;;;;6.07;3.55;;;;;;;23.77;45.54;100267.09;10285902;28;20049;-58
2022/08/25 01:57:22;;;;;;;3.58;2.75;;;;;;;23.71;45.89;100270.66;10274943;28;20041;-58
2022/08/25 02:02:24;;;;;;;3.42;2.63;;;;;;;23.70;45.80;100279.84;10289560;28;20046;-58
2022/08/25 02:07:26;;;;;;;3.90;2.75;;;;;;;23.50;46.15;100280.69;10294316;28;20204;-58
2022/08/25 02:12:30;;;;;;;4.30;3.33;;;;;;;23.56;46.53;100279.03;10295119;28;20135;-58
2022/08/25 02:17:35;;;;;;;6.43;3.65;;;;;;;23.54;46.86;100281.09;10278767;28;20265;-59
2022/08/25 02:22:36;;;;;;;3.90;3.47;;;;;;;23.52;46.92;100277.75;10273062;28;20140;-57
2022/08/25 02:27:38;;;;;;;4.97;2.90;;;;;;;23.51;47.11;100274.22;10292507;28;20136;-58
2022/08/25 02:32:40;;;;;;;3.78;2.78;;;;;;;23.46;47.14;100274.00;10282329;28;20644;-58
2022/08/25 02:37:41;;;;;;;6.43;3.38;;;;;;;23.42;47.50;100275.44;10287461;28;20068;-64
2022/08/25 02:42:43;;;;;;;6.82;3.33;;;;;;;23.41;47.43;100269.19;10283113;28;20129;-58
2022/08/25 02:47:45;;;;;;;6.28;3.75;;;;;;;23.43;47.53;100271.69;10253727;28;20178;-58
2022/08/25 02:52:49;;;;;;;5.68;3.30;;;;;;;23.43;47.78;100275.22;10254702;28;20050;-58
2022/08/25 02:57:50;;;;;;;3.65;3.20;;;;;;;23.41;47.59;100271.06;10290951;28;20288;-58
2022/08/25 03:02:52;;;;;;;5.63;3.42;;;;;;;23.34;47.95;100259.34;10289193;28;20149;-58
2022/08/25 03:07:53;;;;;;;5.45;3.50;;;;;;;23.28;48.53;100255.59;10291312;28;20208;-58
2022/08/25 03:12:54;;;;;;;4.15;2.92;;;;;;;23.24;48.96;100266.03;10277540;28;20058;-57
2022/08/25 03:17:56;;;;;;;3.55;3.25;;;;;;;23.21;48.83;100261.03;10279718;28;20046;-58
2022/08/25 03:23:02;;;;;;;4.32;3.17;;;;;;;23.10;48.98;100248.91;10288085;28;20054;-58
2022/08/25 03:28:05;;;;;;;5.28;3.03;;;;;;;23.09;49.25;100258.06;10278677;28;20060;-57
2022/08/25 03:33:07;;;;;;;3.75;3.45;;;;;;;23.03;49.36;100252.59;10288193;28;20053;-58
2022/08/25 03:38:08;;;;;;;4.88;4.07;;;;;;;23.03;49.73;100249.88;10264881;28;20125;-58
2022/08/25 03:43:10;;;;;;;4.45;3.40;;;;;;;23.00;49.49;100247.56;10298456;28;20180;-57
2022/08/25 03:48:11;;;;;;;4.65;3.42;;;;;;;22.93;50.02;100239.44;10288542;28;20137;-57
2022/08/25 03:53:13;;;;;;;5.03;3.42;;;;;;;22.89;50.20;100244.41;10284171;28;20124;-57
2022/08/25 03:58:14;;;;;;;6.05;3.95;;;;;;;22.84;50.39;100241.47;10289601;28;20061;-57
2022/08/25 04:03:17;;;;;;;5.18;3.83;;;;;;;22.86;50.69;100246.72;10288236;28;20058;-57
2022/08/25 04:08:18;;;;;;;4.65;4.22;;;;;;;22.90;50.59;100254.22;10266043;28;20050;-56
2022/08/25 04:13:20;;;;;;;5.13;3.80;;;;;;;22.88;50.53;100248.19;10241734;28;20060;-55
2022/08/25 04:18:21;;;;;;;3.92;3.60;;;;;;;22.83;50.96;100241.69;10252562;28;20668;-55
2022/08/25 04:23:23;;;;;;;4.88;4.13;;;;;;;22.74;51.50;100232.91;10273017;28;20082;-55
2022/08/25 04:28:24;;;;;;;6.57;4.43;;;;;;;;;;10272311;28;20053;-56
2022/08/25 04:33:26;;;;;;;5.40;4.10;;;;;;;22.73;52.29;100236.66;10256048;28;20230;-56
2022/08/25 04:38:27;;;;;;;5.50;4.05;;;;;;;22.65;52.71;100231.41;10251595;28;20062;-64
2022/08/25 04:43:30;;;;;;;6.50;5.05;;;;;;;22.56;53.24;100239.75;10256863;28;20128;-63
2022/08/25 04:48:32;;;;;;;9.60;4.95;;;;;;;22.51;53.70;100233.25;10269434;28;20504;-64
2022/08/25 04:53:35;;;;;;;5.72;5.22;;;;;;;22.49;54.34;100238.88;10263429;28;20066;-64
2022/08/25 04:58:37;;;;;;;6.32;4.93;;;;;;;22.48;54.47;100250.75;10272921;28;20069;-64
2022/08/25 05:03:39;;;;;;;5.45;4.95;;;;;;;22.45;54.92;100261.16;10270908;28;20061;-64
2022/08/25 05:08:40;;;;;;;5.68;5.13;;;;;;;22.38;55.18;100255.69;10269618;28;20045;-64
2022/08/25 05:13:44;;;;;;;6.47;5.55;;;;;;;22.42;55.35;100252.38;10266584;28;20050;-65
2022/08/25 05:18:53;;;;;;;6.60;5.43;;;;;;;22.44;55.34;100245.94;10266150;28;20046;-63
2022/08/25 05:23:59;;;;;;;6.07;5.53;;;;;;;22.48;55.33;100248.03;10269111;28;20050;-64
2022/08/25 05:29:03;;;;;;;6.15;5.57;;;;;;;22.46;55.95;100236.56;10256344;28;20244;-63
2022/08/25 05:34:06;;;;;;;6.38;5.10;;;;;;;22.52;55.96;100235.75;10256893;28;20050;-66
2022/08/25 05:39:08;;;;;;;;;;;;;;;22.54;55.95;100238.25;10249817;28;20156;-64
2022/08/25 05:44:11;;;;;;;7.03;5.65;;;;;;;22.55;56.05;100235.34;10253825;28;20379;-63
2022/08/25 05:49:12;;;;;;;7.68;5.95;;;;;;;22.53;55.78;100221.16;10259988;28;20549;-64
2022/08/25 05:54:14;;;;;;;9.82;6.38;;;;;;;22.64;56.02;100229.72;10263615;28;20478;-63
2022/08/25 05:59:16;;;;;;;6.53;5.82;;;;;;;;;;10248202;28;20134;-63
2022/08/25 06:04:19;;;;;;;7.78;6.97;;;;;;;22.84;55.89;100233.34;10250154;28;20050;-64
2022/08/25 06:09:21;;;;;;;8.73;6.20;;;;;;;23.00;55.63;100234.00;10248086;28;20403;-64
2022/08/25 06:14:23;;;;;;;7.45;6.50;;;;;;;23.21;54.87;100233.88;10243306;28;20046;-64
2022/08/25 06:19:26;;;;;;;10.10;6.18;;;;;;;23.38;54.42;100230.75;10260075;28;20131;-63
2022/08/25 06:24:28;;;;;;;7.67;6.97;;;;;;;23.55;54.24;100229.28;10250459;28;20427;-64
2022/08/25 06:29:29;;;;;;;8.05;6.00;;;;;;;23.71;54.19;100228.00;10253168;28;20057;-64
2022/08/25 06:34:31;;;;;;;7.93;6.47;;;;;;;23.72;54.40;100226.13;10258154;28;20062;-63
2022/08/25 06:39:33;;;;;;;8.00;6.07;;;;;;;23.93;53.97;100231.38;10302797;28;20503;-63
2022/08/25 06:44:35;;;;;;;7.00;6.30;;;;;;;24.11;53.58;100233.41;10310503;28;20071;-63
2022/08/25 06:49:36;;;;;;;7.75;6.25;;;;;;;24.33;53.04;100228.50;10310015;28;20075;-65
2022/08/25 06:54:38;;;;;;;7.88;6.25;;;;;;;24.48;52.83;100224.72;10310494;28;20339;-65
2022/08/25 06:59:39;;;;;;;6.65;5.88;;;;;;;24.66;52.77;100224.84;10310297;28;20099;-64
2022/08/25 07:04:42;;;;;;;8.20;6.47;;;;;;;24.82;52.50;100223.53;10312976;28;20057;-67
2022/08/25 07:09:43;;;;;;;7.70;6.82;;;;;;;24.85;52.19;100227.69;10301803;28;20050;-63
2022/08/25 07:14:44;;;;;;;7.60;6.90;;;;;;;24.86;52.62;100223.91;10308510;28;20731;-65
2022/08/25 07:20:04;;;;;;;7.45;6.68;;;;;;;25.36;51.85;100221.28;10313110;28;20052;-65
2022/08/25 07:25:06;;;;;;;6.78;6.18;;;;;;;25.54;50.85;100225.97;10310173;28;20092;-64
2022/08/25 07:30:08;;;;;;;9.15;6.75;;;;;;;25.69;50.98;100217.44;10315652;28;20141;-64
2022/08/25 07:35:14;;;;;;;7.00;6.30;;;;;;;25.88;50.78;100209.28;10309514;28;20514;-63
2022/08/25 07:40:23;;;;;;;7.97;6.63;;;;;;;26.11;50.10;100204.03;10317589;28;20152;-66
2022/08/25 07:45:29;;;;;;;6.03;5.43;;;;;;;26.28;49.65;100208.88;10297651;28;20050;-64
2022/08/25 07:50:31;;;;;;;7.65;6.93;;;;;;;26.56;48.79;100204.75;10310799;28;20110;-65
2022/08/25 07:55:35;;;;;;;7.57;6.50;;;;;;;26.67;48.99;100201.25;10310735;28;20053;-66
2022/08/25 08:00:38;;;;;;;7.30;6.60;;;;;;;26.84;48.29;100200.63;10311012;28;20539;-64
2022/08/25 08:05:42;;;;;;;7.97;7.00;;;;;;;27.08;48.05;100201.50;10306210;28;20076;-65
2022/08/25 08:10:44;;;;;;;6.40;5.72;;;;;;;27.29;47.08;100200.13;10306903;28;20068;-68
2022/08/25 08:16:13;;;;;;;7.47;5.82;;;;;;;27.37;46.38;100213.47;10290084;28;20107;-65
2022/08/25 08:21:27;;;;;;;6.95;6.35;;;;;;;27.44;46.62;100210.63;10305268;28;20573;-65
2022/08/25 08:26:30;;;;;;;7.32;5.95;;;;;;;27.74;46.57;100204.22;10305084;28;20116;-65
2022/08/25 08:31:52;;;;;;;7.72;6.45;;;;;;;27.99;44.87;100199.34;10303481;28;20388;-65
2022/08/25 08:36:53;;;;;;;7.40;6.70;;;;;;;27.94;45.08;100191.00;10291871;28;20071;-64
2022/08/25 08:42:18;;;;;;;7.75;6.00;;;;;;;28.16;44.55;100193.94;10310432;28;20815;-64
2022/08/25 08:47:27;;;;;;;7.95;6.15;;;;;;;28.41;43.91;100192.81;10295826;28;20054;-64
2022/08/25 08:52:44;;;;;;;6.78;5.93;;;;;;;28.60;42.30;100190.78;10306435;28;20621;-65
2022/08/25 08:57:51;;;;;;;5.65;5.03;;;;;;;28.68;41.36;100190.34;10306185;28;20572;-65
2022/08/25 09:03:05;;;;;;;5.57;5.05;;;;;;;28.73;42.35;100178.66;10302088;28;20061;-64
2022/08/25 09:08:10;;;;;;;;;;;;;;;29.24;41.20;100193.28;10306145;28;20061;-67
2022/08/25 09:13:17;;;;;;;8.38;5.55;;;;;;;29.53;40.72;100181.38;10304672;28;20039;-66
2022/08/25 09:18:39;;;;;;;6.10;5.50;;;;;;;29.74;39.82;100171.53;10290589;28;20046;-65
2022/08/25 09:24:36;;;;;;;6.20;5.60;;;;;;;30.42;39.68;100163.97;10303878;28;20127;-66
2022/08/25 09:29:48;;;;;;;6.50;5.65;;;;;;;30.62;38.29;100160.59;10295055;28;20652;-66
2022/08/25 09:34:53;;;;;;;5.05;4.60;;;;;;;30.52;38.22;100148.69;10303027;28;20366;-66
2022/08/25 09:39:57;;;;;;;5.43;4.82;;;;;;;31.01;36.33;100146.69;10312822;28;20050;-66
2022/08/25 09:44:59;;;;;;;7.03;4.90;;;;;;;31.27;36.33;100143.31;10307192;28;20045;-66
2022/08/25 09:50:03;;;;;;;5.93;5.30;;;;;;;31.86;34.84;100136.84;10304155;28;20406;-66
2022/08/25 09:55:15;;;;;;;6.68;5.22;;;;;;;32.22;35.52;100123.22;10309573;28;20136;-65
2022/08/25 10:00:21;;;;;;;5.72;5.22;;;;;;;32.72;34.54;100107.91;10302802;28;20548;-66
2022/08/25 10:05:25;;;;;;;6.72;5.07;;;;;;;32.98;34.84;100107.91;10307437;28;20426;-65
2022/08/25 10:10:28;;;;;;;6.57;5.30;;;;;;;33.72;33.85;100097.31;10304886;28;20910;-66
2022/08/25 10:15:36;;;;;;;5.68;5.03;;;;;;;34.14;32.59;100087.75;10305255;28;20062;-67
2022/08/25 10:20:37;;;;;;;5.65;5.18;;;;;;;35.01;30.55;100082.69;10310758;28;20049;-67
2022/08/25 10:25:50;;;;;;;5.38;4.88;;;;;;;37.82;27.43;100080.78;10313580;28;20174;-67
2022/08/25 10:31:09;;;;;;;5.30;4.78;;;;;;;41.26;22.74;100069.38;10309324;28;20464;-68
2022/08/25 10:36:22;;;;;;;4.95;4.30;;;;;;;41.64;21.65;100057.38;10310616;28;20074;-68
2022/08/25 10:41:40;;;;;;;4.90;4.43;;;;;;;38.71;25.20;100048.69;10314181;28;20694;-68
2022/08/25 10:46:55;;;;;;;5.57;5.07;;;;;;;37.50;26.00;100043.63;10314583;28;20096;-69
2022/08/25 10:52:04;;;;;;;4.43;4.07;;;;;;;40.39;23.08;100032.16;10295955;28;20054;-69
2022/08/25 10:57:20;;;;;;;4.90;4.40;;;;;;;44.00;18.64;100028.84;10311945;28;20121;-68
2022/08/25 11:02:46;;;;;;;4.30;3.90;;;;;;;45.76;17.56;100027.00;10299189;28;20232;-69
2022/08/25 11:07:50;;;;;;;4.25;3.95;;;;;;;47.43;16.33;100013.69;10311532;28;20564;-69
2022/08/25 11:12:56;;;;;;;3.90;3.55;;;;;;;41.09;21.50;100008.84;10311724;28;20553;-68
2022/08/25 11:18:10;;;;;;;4.47;4.07;;;;;;;37.59;25.01;100018.75;10308921;28;20137;-67
2022/08/25 11:23:31;;;;;;;4.65;4.22;;;;;;;41.31;21.55;100007.78;10309615;28;20060;-68
2022/08/25 11:29:09;;;;;;;5.37;4.27;;;;;;;41.31;21.42;100003.03;10309527;28;20738;-68
2022/08/25 11:34:14;;;;;;;3.65;3.35;;;;;;;44.27;18.16;100000.00;10299003;28;20379;-70
2022/08/25 11:39:52;;;;;;;3.50;3.15;;;;;;;44.30;17.78;99992.88;10296283;28;20605;-71
2022/08/25 11:45:27;;;;;;;3.38;2.90;;;;;;;46.07;15.47;99994.34;10312415;28;20053;-72
2022/08/25 11:50:33;;;;;;;2.83;2.63;;;;;;;46.57;14.06;99986.88;10313451;28;20049;-70
2022/08/25 11:55:35;;;;;;;3.95;2.90;;;;;;;47.24;15.31;99979.97;10323636;28;20057;-72
2022/08/25 12:00:41;;;;;;;4.80;2.75;;;;;;;46.35;14.28;99982.88;10320759;28;20140;-71
2022/08/25 12:05:45;;;;;;;3.38;2.67;;;;;;;46.12;14.91;99994.03;10311341;28;20042;-70
2022/08/25 12:11:07;;;;;;;3.70;2.80;;;;;;;43.72;17.76;99976.34;10309444;28;20146;-68
2022/08/25 12:16:33;;;;;;;3.35;3.05;;;;;;;41.93;19.54;99980.28;10308895;28;20137;-70
2022/08/25 12:21:35;;;;;;;5.47;2.80;;;;;;;40.68;20.39;99966.50;10304911;28;20679;-66
2022/08/25 12:26:57;;;;;;;3.20;2.90;;;;;;;40.38;21.33;99966.38;10309868;28;20053;-68
2022/08/25 12:32:40;;;;;;;4.43;2.70;;;;;;;37.72;23.63;99967.16;10310853;28;20054;-68
2022/08/25 12:37:59;;;;;;;3.50;3.20;;;;;;;36.32;25.38;99962.59;10308496;28;20100;-69
2022/08/25 12:43:21;;;;;;;4.75;3.70;;;;;;;36.29;26.21;99958.50;10307205;28;20053;-68
2022/08/25 12:48:26;;;;;;;4.20;3.65;;;;;;;37.03;24.44;99954.13;10306521;28;20052;-71
2022/08/25 12:53:37;;;;;;;3.63;2.78;;;;;;;37.03;24.75;99954.13;10316432;23;20132;-74
2022/08/25 12:58:53;;;;;;;3.63;3.33;;;;;;;36.66;24.91;99953.94;10340514;28;20049;-74
2022/08/25 13:04:07;;;;;;;3.97;3.67;;;;;;;36.31;25.31;99947.13;10357511;28;20057;-77
2022/08/25 13:09:52;;;;;;;5.40;3.28;;;;;;;36.16;25.18;99940.66;10368183;28;20071;-78
2022/08/25 13:14:56;;;;;;;3.50;3.15;;;;;;;36.47;24.76;99931.88;10349310;28;20129;-76
2022/08/25 13:20:24;;;;;;;3.13;2.92;;;;;;;36.71;24.42;99928.91;10354927;28;20053;-74
2022/08/25 13:25:28;;;;;;;4.53;3.10;;;;;;;36.69;23.52;99919.25;10355978;28;20156;-75
2022/08/25 13:30:35;;;;;;;3.58;3.10;;;;;;;36.20;24.15;99914.03;10364358;28;20131;-78
2022/08/25 13:35:36;;;;;;;4.15;3.22;;;;;;;35.88;24.62;99901.81;10361430;28;20064;-77
2022/08/25 13:40:38;;;;;;;3.63;2.78;;;;;;;35.62;24.81;99893.03;10350672;28;20407;-76
2022/08/25 13:45:46;;;;;;;4.05;3.30;;;;;;;35.35;26.20;99894.53;10348561;28;20056;-75
2022/08/25 13:50:47;;;;;;;4.18;3.22;;;;;;;35.26;25.28;99892.72;10347077;28;20136;-74
2022/08/25 13:55:57;;;;;;;4.13;2.95;;;;;;;35.31;25.06;99898.19;10349882;28;20060;-73
2022/08/25 14:01:15;;;;;;;3.97;3.25;;;;;;;35.30;25.48;99893.81;10351157;28;20154;-75
2022/08/25 14:06:36;;;;;;;4.78;2.92;;;;;;;35.26;24.45;99878.88;10343175;28;20142;-75
2022/08/25 14:11:42;;;;;;;4.20;3.00;;;;;;;35.21;25.14;99888.88;10349125;28;20061;-76
2022/08/25 14:16:53;;;;;;;3.75;3.00;;;;;;;34.94;25.42;99877.66;10346186;28;20049;-75
2022/08/25 14:22:00;;;;;;;3.38;3.08;;;;;;;34.44;25.53;99869.59;10351779;28;20053;-77
2022/08/25 14:27:03;;;;;;;4.32;3.20;;;;;;;34.31;26.70;99866.41;10352840;28;20050;-76
2022/08/25 14:32:05;;;;;;;3.25;2.95;;;;;;;33.63;27.07;99856.19;10367631;28;20084;-76
2022/08/25 14:37:15;;;;;;;3.10;2.80;;;;;;;33.42;27.37;99845.28;10353995;28;20174;-74
2022/08/25 14:42:16;;;;;;;4.38;2.88;;;;;;;33.29;27.84;99841.22;10351582;28;20221;-75
2022/08/25 14:47:19;;;;;;;;;;;;;;;33.07;27.79;99844.38;10355923;28;20064;-74
2022/08/25 14:52:26;;;;;;;4.60;3.03;;;;;;;32.90;28.59;99832.84;10353977;28;20578;-77
2022/08/25 14:57:27;;;;;;;3.88;3.28;;;;;;;33.15;28.87;99840.19;10346366;28;20046;-77
2022/08/25 15:02:30;;;;;;;5.20;3.58;;;;;;;33.10;28.66;99832.75;10345063;28;20160;-75
2022/08/25 15:12:55;;;;;;;4.25;3.85;;;;;;;33.03;28.57;99823.97;10337346;28;20076;-76
2022/08/25 15:17:57;;;;;;;5.50;3.30;;;;;;;32.54;29.30;99821.94;10345732;28;20140;-77
2022/08/25 15:23:02;;;;;;;4.72;3.80;;;;;;;32.49;29.30;99816.44;10346987;28;20049;-75
2022/08/25 15:28:05;;;;;;;3.92;3.05;;;;;;;32.55;29.62;99810.66;10354966;28;20055;-75
2022/08/25 15:33:10;;;;;;;3.60;3.30;;;;;;;32.52;30.07;99807.59;10349565;28;20057;-76
2022/08/25 15:38:12;;;;;;;4.22;3.80;;;;;;;32.40;30.21;99808.75;10347609;28;20587;-77
2022/08/25 15:43:13;;;;;;;;;;;;;;;32.07;30.65;99811.00;10344965;28;20045;-76
2022/08/25 15:48:16;;;;;;;5.03;3.75;;;;;;;31.82;30.63;99813.78;10348184;28;20133;-77
2022/08/25 15:53:20;;;;;;;4.13;3.40;;;;;;;31.58;30.59;99825.31;10348120;28;20084;-75
2022/08/25 15:58:22;;;;;;;3.78;2.95;;;;;;;31.34;30.63;99803.81;10347308;28;20718;-76
2022/08/25 16:03:24;;;;;;;;;;;;;;;31.35;30.33;99805.47;10352172;28;20057;-76
2022/08/25 16:08:25;;;;;;;3.10;2.83;;;;;;;31.35;30.40;99797.22;10347646;28;19929;-77
2022/08/25 16:13:26;;;;;;;4.38;3.13;;;;;;;31.26;30.80;99793.34;10339977;28;20060;-74
2022/08/25 16:18:28;;;;;;;3.30;3.00;;;;;;;31.13;30.57;99802.94;10347067;28;20679;-75
2022/08/25 16:23:29;;;;;;;4.57;3.08;;;;;;;31.06;30.64;99805.13;10349481;28;20045;-75
2022/08/25 16:28:35;;;;;;;4.28;3.00;;;;;;;31.06;30.78;99793.31;10351107;28;20063;-74
2022/08/25 16:33:37;;;;;;;2.97;2.47;;;;;;;31.00;31.22;99784.22;10350117;28;20061;-73
2022/08/25 16:38:40;;;;;;;3.03;2.80;;;;;;;30.91;30.77;99788.56;10347247;28;20049;-73
2022/08/25 16:43:42;;;;;;;2.92;2.72;;;;;;;30.83;30.88;99787.97;10345905;28;20102;-74
2022/08/25 16:48:43;;;;;;;4.80;2.85;;;;;;;30.76;30.98;99786.59;10347248;28;20064;-76
2022/08/25 16:59:08;;;;;;;3.30;2.65;;;;;;;30.63;31.05;99777.75;10345089;28;20944;-76
2022/08/25 17:04:11;;;;;;;3.13;2.78;;;;;;;30.51;31.20;99774.41;10347160;28;20163;-74
2022/08/25 17:09:14;;;;;;;3.20;2.90;;;;;;;30.43;31.23;99780.41;10348808;28;20049;-74
2022/08/25 17:14:23;;;;;;;4.18;3.17;;;;;;;30.35;31.44;99778.13;10359960;28;20130;-75
2022/08/25 17:19:24;;;;;;;4.95;2.45;;;;;;;30.31;31.67;99773.19;10344516;28;20721;-74
2022/08/25 17:24:27;;;;;;;3.67;3.15;;;;;;;30.21;31.50;99775.88;10342022;28;20049;-77
2022/08/25 17:29:33;;;;;;;4.38;3.17;;;;;;;30.18;31.65;99783.81;10348250;28;20054;-72
2022/08/25 17:34:35;;;;;;;3.53;3.08;;;;;;;30.09;31.95;99780.75;10350745;28;20449;-73
2022/08/25 17:39:37;;;;;;;3.90;2.60;;;;;;;30.00;32.18;99772.16;10340839;28;20449;-74
2022/08/25 17:44:39;;;;;;;2.70;2.50;;;;;;;29.90;32.01;99778.41;10348465;28;20149;-74
2022/08/25 17:49:40;;;;;;;3.65;2.45;;;;;;;29.77;32.12;99781.56;10347619;28;20558;-76
2022/08/25 17:54:41;;;;;;;2.90;2.60;;;;;;;29.67;32.29;99776.03;10345389;28;20061;-75
2022/08/25 17:59:44;;;;;;;2.83;2.45;;;;;;;29.65;32.49;99784.50;10347936;28;20049;-76
2022/08/25 18:04:45;;;;;;;2.75;2.55;;;;;;;29.53;32.88;99787.41;10346114;28;20518;-75
2022/08/25 18:09:47;;;;;;;4.20;2.90;;;;;;;29.45;32.95;99793.34;10343272;28;20054;-73
2022/08/25 18:14:48;;;;;;;3.67;2.72;;;;;;;29.32;33.08;99785.56;10331135;28;20053;-75
2022/08/25 18:19:50;;;;;;;3.83;2.67;;;;;;;29.21;33.17;99790.13;10343039;28;20068;-74
2022/08/25 18:24:51;;;;;;;5.97;2.77;;;;;;;29.13;33.53;99799.59;10345653;28;20049;-74
2022/08/25 18:29:55;;;;;;;3.58;2.38;;;;;;;29.07;33.39;99806.09;10345435;28;20080;-75
2022/08/25 18:34:57;;;;;;;3.45;2.78;;;;;;;28.98;34.38;99802.19;10345470;28;22329;-77
2022/08/25 18:45:22;;;;;;;3.20;2.38;;;;;;;28.82;34.83;99795.69;10353914;28;20049;-73
2022/08/25 18:50:27;;;;;;;5.88;3.22;;;;;;;28.72;34.36;99799.13;10354746;28;20053;-74
2022/08/25 18:55:28;;;;;;;3.67;2.97;;;;;;;28.60;34.78;99802.00;10348950;28;20053;-75
2022/08/25 19:00:32;;;;;;;4.43;3.43;;;;;;;28.52;35.07;99800.47;10350327;28;20054;-74
2022/08/25 19:05:36;;;;;;;5.00;2.80;;;;;;;28.50;34.91;99810.84;10348536;28;20214;-75
2022/08/25 19:10:39;;;;;;;3.47;3.00;;;;;;;28.44;34.91;99814.59;10349960;28;20076;-74
2022/08/25 19:15:43;;;;;;;5.25;3.42;;;;;;;28.36;35.66;99813.13;10351626;28;20061;-73
2022/08/25 19:20:45;;;;;;;6.72;3.67;;;;;;;28.34;36.16;99817.19;10351405;28;20053;-75
2022/08/25 19:25:46;;;;;;;4.93;3.33;;;;;;;28.27;36.34;99816.53;10349557;28;20107;-74
2022/08/25 19:30:48;;;;;;;4.05;3.28;;;;;;;28.19;36.31;99807.69;10352174;28;20104;-75
2022/08/25 19:35:51;;;;;;;4.43;3.25;;;;;;;28.10;36.80;99803.72;10346525;28;20110;-74
2022/08/25 19:40:53;;;;;;;4.10;3.25;;;;;;;28.06;37.16;99808.03;10347986;28;20244;-73
2022/08/25 19:45:54;;;;;;;5.23;3.90;;;;;;;27.93;37.29;99808.34;10352830;28;20094;-74
2022/08/25 19:50:57;;;;;;;;;;;;;;;27.78;37.60;99817.13;10349445;28;20248;-75
2022/08/25 19:56:00;;;;;;;5.30;3.35;;;;;;;27.62;37.77;99818.75;10347813;28;19929;-73
2022/08/25 20:01:02;;;;;;;5.10;3.38;;;;;;;27.52;37.83;99813.97;10351393;28;20053;-75
2022/08/25 20:06:04;;;;;;;4.50;3.63;;;;;;;27.58;37.65;99817.59;10349850;28;20187;-75
2022/08/25 20:11:05;;;;;;;4.88;3.47;;;;;;;27.59;38.03;99811.88;10348840;28;20063;-75
2022/08/25 20:16:07;;;;;;;3.42;3.13;;;;;;;27.49;38.05;99818.00;10345749;28;20053;-75
2022/08/25 20:21:08;;;;;;;4.72;2.53;;;;;;;27.41;38.43;99818.41;10346675;28;20053;-73
2022/08/25 20:26:10;;;;;;;5.63;3.77;;;;;;;27.37;39.10;99825.44;10344943;28;20049;-75
2022/08/25 20:31:12;;;;;;;4.95;3.42;;;;;;;27.29;38.86;99825.78;10346247;28;20192;-75
2022/08/25 20:36:14;;;;;;;5.60;3.10;;;;;;;27.31;38.92;99827.22;10343824;28;20445;-75
2022/08/25 20:41:16;;;;;;;3.63;3.33;;;;;;;27.28;38.44;99821.44;10344287;28;20049;-74
2022/08/25 20:46:18;;;;;;;3.80;2.05;;;;;;;27.20;39.96;99827.25;10350113;28;20088;-76
2022/08/25 20:51:21;;;;;;;4.37;2.73;;;;;;;27.12;38.93;99831.22;10369514;28;20726;-75
2022/08/25 20:56:24;;;;;;;3.88;3.25;;;;;;;27.07;39.49;99831.09;10371933;28;20288;-73
2022/08/25 21:01:36;;;;;;;2.72;2.35;;;;;;;26.98;39.53;99830.69;10372581;28;20053;-74
2022/08/25 21:06:40;;;;;;;4.93;2.97;;;;;;;26.80;39.92;99823.47;10370762;28;20580;-74
2022/08/25 21:11:42;;;;;;;4.03;2.87;;;;;;;26.79;39.95;99828.09;10370746;28;20132;-77
2022/08/25 21:16:45;;;;;;;3.33;3.03;;;;;;;26.67;40.61;99821.84;10373343;28;20338;-77
2022/08/25 21:21:49;;;;;;;3.40;3.10;;;;;;;26.55;40.59;99821.00;10372036;28;20057;-75
2022/08/25 21:26:53;;;;;;;6.00;3.45;;;;;;;26.54;40.23;99827.53;10371255;28;20041;-77
2022/08/25 21:31:57;;;;;;;2.92;2.72;;;;;;;26.48;40.94;99825.75;10372561;28;20049;-75
2022/08/25 21:36:58;;;;;;;3.13;2.83;;;;;;;26.48;41.05;99825.75;10374737;28;20057;-73
2022/08/25 21:42:00;;;;;;;3.63;3.33;;;;;;;26.39;40.90;99825.28;10374382;28;20054;-75
2022/08/25 21:47:02;;;;;;;3.90;2.90;;;;;;;26.36;41.66;99825.75;10365865;28;20049;-75
2022/08/25 21:52:05;;;;;;;3.43;3.13;;;;;;;26.31;41.58;99828.38;10363505;28;20523;-77
2022/08/25 21:57:06;;;;;;;3.63;3.10;;;;;;;26.30;41.76;99830.25;10363789;28;20076;-74
2022/08/25 22:02:10;;;;;;;3.97;2.97;;;;;;;26.15;43.02;99832.63;10364196;28;20619;-74
2022/08/25 22:07:12;;;;;;;4.32;3.92;;;;;;;26.04;43.21;99829.66;10368527;28;20468;-75
2022/08/25 22:12:14;;;;;;;6.63;4.13;;;;;;;25.96;43.37;99827.28;10376325;28;20514;-74
2022/08/25 22:17:15;;;;;;;6.03;4.07;;;;;;;25.92;43.71;99823.34;10376099;28;20052;-74
2022/08/25 22:22:21;;;;;;;4.28;3.40;;;;;;;25.84;43.63;99815.53;10376377;28;20065;-73
2022/08/25 22:27:24;;;;;;;3.60;3.28;;;;;;;25.79;44.17;99818.09;10373891;28;20053;-76
2022/08/25 22:32:25;;;;;;;3.90;3.50;;;;;;;25.84;43.99;99820.97;10376145;28;20649;-75
2022/08/25 22:37:26;;;;;;;5.97;3.67;;;;;;;25.73;43.92;99820.72;10382881;28;20037;-76
2022/08/25 22:42:30;;;;;;;4.05;3.25;;;;;;;25.68;44.03;99825.19;10373554;28;20051;-74
2022/08/25 22:47:32;;;;;;;6.13;3.47;;;;;;;25.64;44.47;99822.13;10373274;28;20439;-74
2022/08/25 22:52:34;;;;;;;6.63;4.00;;;;;;;25.59;44.60;99828.25;10372275;28;20060;-76
2022/08/25 22:57:35;;;;;;;4.72;3.58;;;;;;;25.57;44.47;99829.56;10370474;28;20705;-75
2022/08/25 23:02:40;;;;;;;5.32;4.38;;;;;;;25.58;44.10;99831.22;10371750;28;20089;-75
2022/08/25 23:07:41;;;;;;;4.40;3.50;;;;;;;25.50;45.73;99832.38;10371025;28;20616;-74
2022/08/25 23:12:43;;;;;;;7.40;3.65;;;;;;;25.38;45.29;99821.44;10373558;28;20714;-74
2022/08/25 23:17:44;;;;;;;3.58;3.25;;;;;;;25.36;44.72;99820.03;10371864;28;20049;-74
2022/08/25 23:22:46;;;;;;;5.38;3.78;;;;;;;25.33;45.06;99810.41;10370744;28;20132;-75
2022/08/25 23:27:50;;;;;;;5.93;3.50;;;;;;;25.28;45.43;99818.44;10372743;28;20049;-76
2022/08/25 23:32:52;;;;;;;5.85;4.03;;;;;;;25.28;44.67;99814.84;10362597;28;20049;-75
2022/08/25 23:37:54;;;;;;;5.60;3.88;;;;;;;25.18;45.74;99823.59;10371233;28;20128;-75
2022/08/25 23:42:55;;;;;;;6.75;3.75;;;;;;;25.13;46.39;99809.81;10373091;28;20742;-74
2022/08/25 23:47:56;;;;;;;4.97;4.13;;;;;;;25.09;45.70;99808.63;10374574;28;20068;-75
2022/08/25 23:52:58;;;;;;;4.10;3.65;;;;;;;25.06;45.90;99810.75;10372915;28;20081;-74